sensor_id;sensor_type;location;lat;lon;timestamp;P1;durP1;ratioP1;P2;durP2;ratioP2
20890;SDS011;10605;52.968;8.844;2023-12-14T00:01:32;7.60;;;7.00;;
20890;SDS011;10605;52.968;8.844;2023-12-14T00:03:58;8.27;;;7.68;;
20890;SDS011;10605;52.968;8.844;2023-12-14T00:06:24;10.38;;;7.95;;
20890;SDS011;10605;52.968;8.844;2023-12-14T00:08:49;8.80;;;8.20;;
20890;SDS011;10605;52.968;8.844;2023-12-14T00:11:15;11.98;;;10.88;;
20890;SDS011;10605;52.968;8.844;2023-12-14T00:13:40;13.40;;;12.20;;
20890;SDS011;10605;52.968;8.844;2023-12-14T00:16:06;13.10;;;12.00;;
20890;SDS011;10605;52.968;8.844;2023-12-14T00:18:33;13.93;;;12.65;;
20890;SDS011;10605;52.968;8.844;2023-12-14T00:20:59;13.77;;;12.48;;
20890;SDS011;10605;52.968;8.844;2023-12-14T00:23:24;13.05;;;11.77;;
20890;SDS011;10605;52.968;8.844;2023-12-14T00:25:50;10.98;;;10.02;;
20890;SDS011;10605;52.968;8.844;2023-12-14T00:28:16;10.57;;;9.75;;
20890;SDS011;10605;52.968;8.844;2023-12-14T00:30:41;10.23;;;9.27;;
20890;SDS011;10605;52.968;8.844;2023-12-14T00:33:07;9.98;;;9.10;;
20890;SDS011;10605;52.968;8.844;2023-12-14T00:35:33;8.80;;;8.10;;
20890;SDS011;10605;52.968;8.844;2023-12-14T00:37:58;8.38;;;7.68;;
20890;SDS011;10605;52.968;8.844;2023-12-14T00:40:24;8.85;;;8.18;;
20890;SDS011;10605;52.968;8.844;2023-12-14T00:42:50;7.97;;;7.38;;
20890;SDS011;10605;52.968;8.844;2023-12-14T00:45:16;8.73;;;8.00;;
20890;SDS011;10605;52.968;8.844;2023-12-14T00:47:41;8.15;;;7.25;;
20890;SDS011;10605;52.968;8.844;2023-12-14T00:50:07;8.02;;;7.15;;
20890;SDS011;10605;52.968;8.844;2023-12-14T00:52:33;7.18;;;6.68;;
20890;SDS011;10605;52.968;8.844;2023-12-14T00:54:59;7.07;;;6.50;;
20890;SDS011;10605;52.968;8.844;2023-12-14T00:57:24;6.10;;;5.53;;
20890;SDS011;10605;52.968;8.844;2023-12-14T00:59:50;6.38;;;5.88;;
20890;SDS011;10605;52.968;8.844;2023-12-14T01:02:15;7.05;;;6.55;;
20890;SDS011;10605;52.968;8.844;2023-12-14T01:04:41;6.75;;;6.22;;
20890;SDS011;10605;52.968;8.844;2023-12-14T01:07:07;6.45;;;5.85;;
20890;SDS011;10605;52.968;8.844;2023-12-14T01:09:33;6.80;;;6.30;;
20890;SDS011;10605;52.968;8.844;2023-12-14T01:11:59;7.53;;;6.93;;
20890;SDS011;10605;52.968;8.844;2023-12-14T01:14:25;7.82;;;7.22;;
20890;SDS011;10605;52.968;8.844;2023-12-14T01:16:50;8.77;;;7.40;;
20890;SDS011;10605;52.968;8.844;2023-12-14T01:19:16;7.43;;;6.78;;
20890;SDS011;10605;52.968;8.844;2023-12-14T01:21:41;6.18;;;5.63;;
20890;SDS011;10605;52.968;8.844;2023-12-14T01:24:07;5.85;;;5.32;;
20890;SDS011;10605;52.968;8.844;2023-12-14T01:26:33;5.85;;;5.07;;
20890;SDS011;10605;52.968;8.844;2023-12-14T01:28:59;5.60;;;5.20;;
20890;SDS011;10605;52.968;8.844;2023-12-14T01:31:25;6.18;;;5.50;;
20890;SDS011;10605;52.968;8.844;2023-12-14T01:33:51;6.00;;;5.47;;
20890;SDS011;10605;52.968;8.844;2023-12-14T01:36:20;5.60;;;5.20;;
20890;SDS011;10605;52.968;8.844;2023-12-14T01:38:47;6.03;;;5.28;;
20890;SDS011;10605;52.968;8.844;2023-12-14T01:41:13;6.28;;;5.70;;
20890;SDS011;10605;52.968;8.844;2023-12-14T01:43:38;7.72;;;6.93;;
20890;SDS011;10605;52.968;8.844;2023-12-14T01:46:04;7.10;;;6.60;;
20890;SDS011;10605;52.968;8.844;2023-12-14T01:48:29;9.38;;;7.85;;
20890;SDS011;10605;52.968;8.844;2023-12-14T01:50:55;9.00;;;8.10;;
20890;SDS011;10605;52.968;8.844;2023-12-14T01:53:21;9.05;;;8.15;;
20890;SDS011;10605;52.968;8.844;2023-12-14T01:55:46;9.70;;;8.43;;
20890;SDS011;10605;52.968;8.844;2023-12-14T01:58:12;9.05;;;8.20;;
20890;SDS011;10605;52.968;8.844;2023-12-14T02:03:19;8.95;;;8.25;;
20890;SDS011;10605;52.968;8.844;2023-12-14T02:05:44;8.60;;;7.82;;
20890;SDS011;10605;52.968;8.844;2023-12-14T02:08:10;8.38;;;7.78;;
20890;SDS011;10605;52.968;8.844;2023-12-14T02:10:36;9.15;;;7.28;;
20890;SDS011;10605;52.968;8.844;2023-12-14T02:13:02;7.50;;;6.80;;
20890;SDS011;10605;52.968;8.844;2023-12-14T02:15:27;7.40;;;6.70;;
20890;SDS011;10605;52.968;8.844;2023-12-14T02:17:53;9.50;;;7.03;;
20890;SDS011;10605;52.968;8.844;2023-12-14T02:20:19;8.70;;;6.80;;
20890;SDS011;10605;52.968;8.844;2023-12-14T02:22:48;7.80;;;7.10;;
20890;SDS011;10605;52.968;8.844;2023-12-14T02:25:18;7.63;;;6.93;;
20890;SDS011;10605;52.968;8.844;2023-12-14T02:27:44;7.88;;;6.60;;
20890;SDS011;10605;52.968;8.844;2023-12-14T02:30:10;8.15;;;7.45;;
20890;SDS011;10605;52.968;8.844;2023-12-14T02:32:37;7.50;;;6.20;;
20890;SDS011;10605;52.968;8.844;2023-12-14T02:35:06;7.45;;;6.10;;
20890;SDS011;10605;52.968;8.844;2023-12-14T02:37:32;7.75;;;6.50;;
20890;SDS011;10605;52.968;8.844;2023-12-14T02:39:59;7.25;;;6.63;;
20890;SDS011;10605;52.968;8.844;2023-12-14T02:42:28;7.05;;;6.43;;
20890;SDS011;10605;52.968;8.844;2023-12-14T02:44:54;6.68;;;6.03;;
20890;SDS011;10605;52.968;8.844;2023-12-14T02:47:20;5.72;;;5.20;;
20890;SDS011;10605;52.968;8.844;2023-12-14T02:49:46;5.70;;;5.20;;
20890;SDS011;10605;52.968;8.844;2023-12-14T02:52:12;6.03;;;5.45;;
20890;SDS011;10605;52.968;8.844;2023-12-14T02:54:38;6.03;;;5.45;;
20890;SDS011;10605;52.968;8.844;2023-12-14T02:57:04;6.28;;;5.28;;
20890;SDS011;10605;52.968;8.844;2023-12-14T02:59:30;6.18;;;5.68;;
20890;SDS011;10605;52.968;8.844;2023-12-14T03:01:56;6.35;;;5.85;;
20890;SDS011;10605;52.968;8.844;2023-12-14T03:04:21;6.20;;;5.70;;
20890;SDS011;10605;52.968;8.844;2023-12-14T03:06:47;8.32;;;5.18;;
20890;SDS011;10605;52.968;8.844;2023-12-14T03:09:12;5.93;;;5.32;;
20890;SDS011;10605;52.968;8.844;2023-12-14T03:11:38;6.20;;;5.70;;
20890;SDS011;10605;52.968;8.844;2023-12-14T03:14:04;6.40;;;5.80;;
20890;SDS011;10605;52.968;8.844;2023-12-14T03:16:29;7.10;;;6.00;;
20890;SDS011;10605;52.968;8.844;2023-12-14T03:18:55;6.68;;;6.07;;
20890;SDS011;10605;52.968;8.844;2023-12-14T03:21:21;9.55;;;6.30;;
20890;SDS011;10605;52.968;8.844;2023-12-14T03:23:48;7.32;;;6.60;;
20890;SDS011;10605;52.968;8.844;2023-12-14T03:26:14;7.25;;;6.15;;
20890;SDS011;10605;52.968;8.844;2023-12-14T03:28:40;6.32;;;5.78;;
20890;SDS011;10605;52.968;8.844;2023-12-14T03:31:05;9.80;;;6.30;;
20890;SDS011;10605;52.968;8.844;2023-12-14T03:33:31;6.93;;;6.28;;
20890;SDS011;10605;52.968;8.844;2023-12-14T03:35:57;6.88;;;6.18;;
20890;SDS011;10605;52.968;8.844;2023-12-14T03:38:23;8.60;;;6.10;;
20890;SDS011;10605;52.968;8.844;2023-12-14T03:40:48;8.60;;;5.28;;
20890;SDS011;10605;52.968;8.844;2023-12-14T03:43:14;7.00;;;5.80;;
20890;SDS011;10605;52.968;8.844;2023-12-14T03:45:40;8.23;;;4.97;;
20890;SDS011;10605;52.968;8.844;2023-12-14T03:48:05;5.10;;;4.38;;
20890;SDS011;10605;52.968;8.844;2023-12-14T03:50:31;5.25;;;4.75;;
20890;SDS011;10605;52.968;8.844;2023-12-14T03:52:57;4.25;;;3.88;;
20890;SDS011;10605;52.968;8.844;2023-12-14T03:55:23;5.85;;;4.28;;
20890;SDS011;10605;52.968;8.844;2023-12-14T03:57:49;5.13;;;4.00;;
20890;SDS011;10605;52.968;8.844;2023-12-14T04:00:15;4.40;;;4.05;;
20890;SDS011;10605;52.968;8.844;2023-12-14T04:02:41;3.97;;;3.67;;
20890;SDS011;10605;52.968;8.844;2023-12-14T04:05:07;4.40;;;4.00;;
20890;SDS011;10605;52.968;8.844;2023-12-14T04:07:35;4.22;;;3.90;;
20890;SDS011;10605;52.968;8.844;2023-12-14T04:10:01;4.93;;;4.10;;
20890;SDS011;10605;52.968;8.844;2023-12-14T04:12:27;3.95;;;3.67;;
20890;SDS011;10605;52.968;8.844;2023-12-14T04:14:53;4.30;;;4.00;;
20890;SDS011;10605;52.968;8.844;2023-12-14T04:17:18;4.10;;;3.75;;
20890;SDS011;10605;52.968;8.844;2023-12-14T04:19:44;3.80;;;3.50;;
20890;SDS011;10605;52.968;8.844;2023-12-14T04:22:09;3.80;;;3.53;;
20890;SDS011;10605;52.968;8.844;2023-12-14T04:24:35;3.55;;;3.35;;
20890;SDS011;10605;52.968;8.844;2023-12-14T04:27:01;3.13;;;2.92;;
20890;SDS011;10605;52.968;8.844;2023-12-14T04:29:26;3.65;;;3.33;;
20890;SDS011;10605;52.968;8.844;2023-12-14T04:31:52;3.83;;;3.05;;
20890;SDS011;10605;52.968;8.844;2023-12-14T04:34:18;5.30;;;3.28;;
20890;SDS011;10605;52.968;8.844;2023-12-14T04:36:47;2.88;;;2.60;;
20890;SDS011;10605;52.968;8.844;2023-12-14T04:39:13;2.90;;;2.70;;
20890;SDS011;10605;52.968;8.844;2023-12-14T04:41:39;2.97;;;2.78;;
20890;SDS011;10605;52.968;8.844;2023-12-14T04:44:05;3.28;;;2.80;;
20890;SDS011;10605;52.968;8.844;2023-12-14T04:46:30;4.15;;;2.70;;
20890;SDS011;10605;52.968;8.844;2023-12-14T04:48:56;2.85;;;2.50;;
20890;SDS011;10605;52.968;8.844;2023-12-14T04:51:21;3.22;;;2.92;;
20890;SDS011;10605;52.968;8.844;2023-12-14T04:53:47;3.08;;;2.88;;
20890;SDS011;10605;52.968;8.844;2023-12-14T04:56:13;2.78;;;2.55;;
20890;SDS011;10605;52.968;8.844;2023-12-14T04:58:39;4.45;;;2.40;;
20890;SDS011;10605;52.968;8.844;2023-12-14T05:01:05;2.95;;;2.75;;
20890;SDS011;10605;52.968;8.844;2023-12-14T05:03:31;2.72;;;2.50;;
20890;SDS011;10605;52.968;8.844;2023-12-14T05:05:58;4.40;;;2.17;;
20890;SDS011;10605;52.968;8.844;2023-12-14T05:08:23;2.95;;;2.75;;
20890;SDS011;10605;52.968;8.844;2023-12-14T05:10:49;2.67;;;2.47;;
20890;SDS011;10605;52.968;8.844;2023-12-14T05:13:15;2.67;;;2.45;;
20890;SDS011;10605;52.968;8.844;2023-12-14T05:15:40;3.20;;;2.90;;
20890;SDS011;10605;52.968;8.844;2023-12-14T05:18:06;3.55;;;3.20;;
20890;SDS011;10605;52.968;8.844;2023-12-14T05:20:32;7.55;;;3.25;;
20890;SDS011;10605;52.968;8.844;2023-12-14T05:22:59;3.72;;;3.08;;
20890;SDS011;10605;52.968;8.844;2023-12-14T05:25:24;4.82;;;3.15;;
20890;SDS011;10605;52.968;8.844;2023-12-14T05:27:50;4.38;;;3.17;;
20890;SDS011;10605;52.968;8.844;2023-12-14T05:30:16;3.53;;;3.28;;
20890;SDS011;10605;52.968;8.844;2023-12-14T05:32:42;5.78;;;3.53;;
20890;SDS011;10605;52.968;8.844;2023-12-14T05:35:08;3.67;;;3.00;;
20890;SDS011;10605;52.968;8.844;2023-12-14T05:37:34;3.63;;;3.33;;
20890;SDS011;10605;52.968;8.844;2023-12-14T05:40:01;2.78;;;2.65;;
20890;SDS011;10605;52.968;8.844;2023-12-14T05:42:27;3.20;;;2.70;;
20890;SDS011;10605;52.968;8.844;2023-12-14T05:44:53;2.92;;;2.72;;
20890;SDS011;10605;52.968;8.844;2023-12-14T05:47:19;4.03;;;3.60;;
20890;SDS011;10605;52.968;8.844;2023-12-14T05:49:44;3.25;;;2.80;;
20890;SDS011;10605;52.968;8.844;2023-12-14T05:52:10;3.20;;;2.75;;
20890;SDS011;10605;52.968;8.844;2023-12-14T05:54:37;3.13;;;2.92;;
20890;SDS011;10605;52.968;8.844;2023-12-14T05:57:03;4.57;;;3.08;;
20890;SDS011;10605;52.968;8.844;2023-12-14T05:59:29;5.22;;;2.85;;
20890;SDS011;10605;52.968;8.844;2023-12-14T06:01:58;3.58;;;3.03;;
20890;SDS011;10605;52.968;8.844;2023-12-14T06:04:24;4.80;;;3.22;;
20890;SDS011;10605;52.968;8.844;2023-12-14T06:06:51;3.13;;;2.80;;
20890;SDS011;10605;52.968;8.844;2023-12-14T06:09:16;4.18;;;2.72;;
20890;SDS011;10605;52.968;8.844;2023-12-14T06:11:44;4.00;;;3.63;;
20890;SDS011;10605;52.968;8.844;2023-12-14T06:14:10;4.13;;;2.70;;
20890;SDS011;10605;52.968;8.844;2023-12-14T06:16:35;3.20;;;2.92;;
20890;SDS011;10605;52.968;8.844;2023-12-14T06:19:01;2.63;;;2.42;;
20890;SDS011;10605;52.968;8.844;2023-12-14T06:21:26;5.60;;;2.88;;
20890;SDS011;10605;52.968;8.844;2023-12-14T06:23:54;3.15;;;2.92;;
20890;SDS011;10605;52.968;8.844;2023-12-14T06:26:20;2.80;;;2.60;;
20890;SDS011;10605;52.968;8.844;2023-12-14T06:28:46;3.35;;;3.05;;
20890;SDS011;10605;52.968;8.844;2023-12-14T06:31:15;5.53;;;4.00;;
20890;SDS011;10605;52.968;8.844;2023-12-14T06:33:42;4.43;;;4.05;;
20890;SDS011;10605;52.968;8.844;2023-12-14T06:36:08;5.50;;;4.00;;
20890;SDS011;10605;52.968;8.844;2023-12-14T06:38:34;4.10;;;3.78;;
20890;SDS011;10605;52.968;8.844;2023-12-14T06:41:02;4.03;;;3.72;;
20890;SDS011;10605;52.968;8.844;2023-12-14T06:43:28;4.18;;;3.70;;
20890;SDS011;10605;52.968;8.844;2023-12-14T06:45:54;5.38;;;4.65;;
20890;SDS011;10605;52.968;8.844;2023-12-14T06:48:20;4.20;;;3.90;;
20890;SDS011;10605;52.968;8.844;2023-12-14T06:50:45;6.93;;;5.03;;
20890;SDS011;10605;52.968;8.844;2023-12-14T06:53:11;6.75;;;4.50;;
20890;SDS011;10605;52.968;8.844;2023-12-14T06:55:36;5.90;;;4.97;;
20890;SDS011;10605;52.968;8.844;2023-12-14T06:58:02;5.75;;;5.25;;
20890;SDS011;10605;52.968;8.844;2023-12-14T07:00:28;8.10;;;6.05;;
20890;SDS011;10605;52.968;8.844;2023-12-14T07:02:54;5.75;;;5.25;;
20890;SDS011;10605;52.968;8.844;2023-12-14T07:05:20;10.23;;;6.00;;
20890;SDS011;10605;52.968;8.844;2023-12-14T07:07:46;6.25;;;5.47;;
20890;SDS011;10605;52.968;8.844;2023-12-14T07:10:11;6.53;;;5.93;;
20890;SDS011;10605;52.968;8.844;2023-12-14T07:12:37;8.00;;;6.05;;
20890;SDS011;10605;52.968;8.844;2023-12-14T07:15:02;7.15;;;6.05;;
20890;SDS011;10605;52.968;8.844;2023-12-14T07:17:28;6.85;;;5.40;;
20890;SDS011;10605;52.968;8.844;2023-12-14T07:19:54;10.30;;;5.70;;
20890;SDS011;10605;52.968;8.844;2023-12-14T07:22:19;6.30;;;5.65;;
20890;SDS011;10605;52.968;8.844;2023-12-14T07:24:45;5.30;;;4.90;;
20890;SDS011;10605;52.968;8.844;2023-12-14T07:27:11;6.30;;;5.72;;
20890;SDS011;10605;52.968;8.844;2023-12-14T07:29:36;7.03;;;5.85;;
20890;SDS011;10605;52.968;8.844;2023-12-14T07:32:02;6.88;;;5.72;;
20890;SDS011;10605;52.968;8.844;2023-12-14T07:34:28;9.88;;;5.63;;
20890;SDS011;10605;52.968;8.844;2023-12-14T07:36:54;6.50;;;5.78;;
20890;SDS011;10605;52.968;8.844;2023-12-14T07:39:19;8.00;;;5.95;;
20890;SDS011;10605;52.968;8.844;2023-12-14T07:41:45;10.05;;;4.80;;
20890;SDS011;10605;52.968;8.844;2023-12-14T07:44:11;7.05;;;5.75;;
20890;SDS011;10605;52.968;8.844;2023-12-14T07:46:37;12.18;;;6.63;;
20890;SDS011;10605;52.968;8.844;2023-12-14T07:49:06;7.43;;;5.47;;
20890;SDS011;10605;52.968;8.844;2023-12-14T07:51:32;7.97;;;5.40;;
20890;SDS011;10605;52.968;8.844;2023-12-14T07:53:57;9.55;;;5.95;;
20890;SDS011;10605;52.968;8.844;2023-12-14T07:56:23;10.95;;;5.85;;
20890;SDS011;10605;52.968;8.844;2023-12-14T07:58:52;7.55;;;5.70;;
20890;SDS011;10605;52.968;8.844;2023-12-14T08:01:18;9.60;;;5.35;;
20890;SDS011;10605;52.968;8.844;2023-12-14T08:03:44;10.20;;;5.93;;
20890;SDS011;10605;52.968;8.844;2023-12-14T08:06:09;10.05;;;5.30;;
20890;SDS011;10605;52.968;8.844;2023-12-14T08:08:35;7.38;;;6.10;;
20890;SDS011;10605;52.968;8.844;2023-12-14T08:11:02;11.18;;;5.63;;
20890;SDS011;10605;52.968;8.844;2023-12-14T08:13:28;6.57;;;4.90;;
20890;SDS011;10605;52.968;8.844;2023-12-14T08:15:55;10.60;;;5.43;;
20890;SDS011;10605;52.968;8.844;2023-12-14T08:18:20;7.90;;;5.43;;
20890;SDS011;10605;52.968;8.844;2023-12-14T08:20:46;6.20;;;5.25;;
20890;SDS011;10605;52.968;8.844;2023-12-14T08:23:11;7.18;;;5.70;;
20890;SDS011;10605;52.968;8.844;2023-12-14T08:25:37;8.35;;;5.18;;
20890;SDS011;10605;52.968;8.844;2023-12-14T08:28:03;9.00;;;5.28;;
20890;SDS011;10605;52.968;8.844;2023-12-14T08:30:28;8.00;;;4.38;;
20890;SDS011;10605;52.968;8.844;2023-12-14T08:32:54;5.25;;;4.55;;
20890;SDS011;10605;52.968;8.844;2023-12-14T08:35:20;5.25;;;4.75;;
20890;SDS011;10605;52.968;8.844;2023-12-14T08:37:46;9.98;;;5.40;;
20890;SDS011;10605;52.968;8.844;2023-12-14T08:40:12;6.30;;;5.03;;
20890;SDS011;10605;52.968;8.844;2023-12-14T08:42:37;6.60;;;5.22;;
20890;SDS011;10605;52.968;8.844;2023-12-14T08:45:03;9.15;;;5.70;;
20890;SDS011;10605;52.968;8.844;2023-12-14T08:47:29;5.90;;;4.90;;
20890;SDS011;10605;52.968;8.844;2023-12-14T08:49:55;8.02;;;5.13;;
20890;SDS011;10605;52.968;8.844;2023-12-14T08:52:20;10.05;;;6.10;;
20890;SDS011;10605;52.968;8.844;2023-12-14T08:54:46;7.93;;;6.13;;
20890;SDS011;10605;52.968;8.844;2023-12-14T08:57:12;8.88;;;6.65;;
20890;SDS011;10605;52.968;8.844;2023-12-14T08:59:37;10.38;;;7.28;;
20890;SDS011;10605;52.968;8.844;2023-12-14T09:02:04;9.27;;;7.22;;
20890;SDS011;10605;52.968;8.844;2023-12-14T09:04:29;11.70;;;7.53;;
20890;SDS011;10605;52.968;8.844;2023-12-14T09:06:55;10.32;;;7.53;;
20890;SDS011;10605;52.968;8.844;2023-12-14T09:09:21;12.95;;;7.70;;
20890;SDS011;10605;52.968;8.844;2023-12-14T09:11:46;15.15;;;7.80;;
20890;SDS011;10605;52.968;8.844;2023-12-14T09:14:12;10.65;;;7.35;;
20890;SDS011;10605;52.968;8.844;2023-12-14T09:16:37;11.88;;;7.93;;
20890;SDS011;10605;52.968;8.844;2023-12-14T09:19:03;10.43;;;7.30;;
20890;SDS011;10605;52.968;8.844;2023-12-14T09:21:29;8.43;;;7.63;;
20890;SDS011;10605;52.968;8.844;2023-12-14T09:23:55;14.23;;;8.02;;
20890;SDS011;10605;52.968;8.844;2023-12-14T09:26:20;12.00;;;8.45;;
20890;SDS011;10605;52.968;8.844;2023-12-14T09:28:46;8.60;;;7.55;;
20890;SDS011;10605;52.968;8.844;2023-12-14T09:31:11;10.38;;;7.90;;
20890;SDS011;10605;52.968;8.844;2023-12-14T09:33:37;14.57;;;8.77;;
20890;SDS011;10605;52.968;8.844;2023-12-14T09:36:03;14.80;;;8.40;;
20890;SDS011;10605;52.968;8.844;2023-12-14T09:38:29;11.35;;;7.75;;
20890;SDS011;10605;52.968;8.844;2023-12-14T09:40:55;14.45;;;8.57;;
20890;SDS011;10605;52.968;8.844;2023-12-14T09:43:21;13.98;;;8.70;;
20890;SDS011;10605;52.968;8.844;2023-12-14T09:45:48;12.43;;;8.75;;
20890;SDS011;10605;52.968;8.844;2023-12-14T09:48:15;11.30;;;8.20;;
20890;SDS011;10605;52.968;8.844;2023-12-14T09:50:41;12.30;;;8.00;;
20890;SDS011;10605;52.968;8.844;2023-12-14T09:53:07;12.20;;;8.45;;
20890;SDS011;10605;52.968;8.844;2023-12-14T09:55:33;10.20;;;8.45;;
20890;SDS011;10605;52.968;8.844;2023-12-14T09:57:59;10.13;;;8.52;;
20890;SDS011;10605;52.968;8.844;2023-12-14T10:00:37;10.10;;;8.00;;
20890;SDS011;10605;52.968;8.844;2023-12-14T10:03:23;8.85;;;7.47;;
20890;SDS011;10605;52.968;8.844;2023-12-14T10:05:53;8.30;;;7.47;;
20890;SDS011;10605;52.968;8.844;2023-12-14T10:08:20;13.63;;;7.68;;
20890;SDS011;10605;52.968;8.844;2023-12-14T10:10:46;9.30;;;8.18;;
20890;SDS011;10605;52.968;8.844;2023-12-14T10:13:17;12.18;;;7.35;;
20890;SDS011;10605;52.968;8.844;2023-12-14T10:15:44;15.95;;;8.55;;
20890;SDS011;10605;52.968;8.844;2023-12-14T10:18:14;11.27;;;8.07;;
20890;SDS011;10605;52.968;8.844;2023-12-14T10:20:50;13.82;;;7.60;;
20890;SDS011;10605;52.968;8.844;2023-12-14T10:23:16;14.30;;;7.30;;
20890;SDS011;10605;52.968;8.844;2023-12-14T10:25:43;7.88;;;7.07;;
20890;SDS011;10605;52.968;8.844;2023-12-14T10:28:11;12.02;;;7.90;;
20890;SDS011;10605;52.968;8.844;2023-12-14T10:30:38;10.13;;;7.63;;
20890;SDS011;10605;52.968;8.844;2023-12-14T10:33:04;13.23;;;8.18;;
20890;SDS011;10605;52.968;8.844;2023-12-14T10:35:30;10.27;;;8.38;;
20890;SDS011;10605;52.968;8.844;2023-12-14T10:37:56;13.95;;;8.57;;
20890;SDS011;10605;52.968;8.844;2023-12-14T10:40:26;12.13;;;7.65;;
20890;SDS011;10605;52.968;8.844;2023-12-14T10:42:53;13.90;;;7.82;;
20890;SDS011;10605;52.968;8.844;2023-12-14T10:45:22;10.55;;;8.13;;
20890;SDS011;10605;52.968;8.844;2023-12-14T10:47:57;10.18;;;8.30;;
20890;SDS011;10605;52.968;8.844;2023-12-14T10:50:25;11.68;;;7.97;;
20890;SDS011;10605;52.968;8.844;2023-12-14T10:52:52;13.88;;;8.10;;
20890;SDS011;10605;52.968;8.844;2023-12-14T10:55:22;9.20;;;8.10;;
20890;SDS011;10605;52.968;8.844;2023-12-14T10:58:03;8.60;;;7.72;;
20890;SDS011;10605;52.968;8.844;2023-12-14T11:00:30;12.02;;;7.88;;
20890;SDS011;10605;52.968;8.844;2023-12-14T11:02:57;12.30;;;7.63;;
20890;SDS011;10605;52.968;8.844;2023-12-14T11:05:26;10.90;;;7.20;;
20890;SDS011;10605;52.968;8.844;2023-12-14T11:07:56;10.75;;;8.20;;
20890;SDS011;10605;52.968;8.844;2023-12-14T11:10:43;11.02;;;8.00;;
20890;SDS011;10605;52.968;8.844;2023-12-14T11:13:21;14.65;;;8.23;;
20890;SDS011;10605;52.968;8.844;2023-12-14T11:15:48;11.55;;;8.70;;
20890;SDS011;10605;52.968;8.844;2023-12-14T11:18:19;11.85;;;7.78;;
20890;SDS011;10605;52.968;8.844;2023-12-14T11:20:59;11.57;;;7.68;;
20890;SDS011;10605;52.968;8.844;2023-12-14T11:25:57;13.00;;;8.00;;
20890;SDS011;10605;52.968;8.844;2023-12-14T11:28:24;14.48;;;8.13;;
20890;SDS011;10605;52.968;8.844;2023-12-14T11:30:50;8.38;;;7.15;;
20890;SDS011;10605;52.968;8.844;2023-12-14T11:33:16;10.95;;;7.95;;
20890;SDS011;10605;52.968;8.844;2023-12-14T11:35:41;15.45;;;7.68;;
20890;SDS011;10605;52.968;8.844;2023-12-14T11:38:07;9.25;;;7.85;;
20890;SDS011;10605;52.968;8.844;2023-12-14T11:40:44;11.00;;;8.25;;
20890;SDS011;10605;52.968;8.844;2023-12-14T11:43:10;10.68;;;7.68;;
20890;SDS011;10605;52.968;8.844;2023-12-14T11:45:39;10.70;;;8.00;;
20890;SDS011;10605;52.968;8.844;2023-12-14T11:48:09;8.43;;;7.35;;
20890;SDS011;10605;52.968;8.844;2023-12-14T11:50:37;13.82;;;7.93;;
20890;SDS011;10605;52.968;8.844;2023-12-14T11:53:03;8.43;;;6.93;;
20890;SDS011;10605;52.968;8.844;2023-12-14T11:55:29;8.55;;;7.43;;
20890;SDS011;10605;52.968;8.844;2023-12-14T11:57:56;11.85;;;8.02;;
20890;SDS011;10605;52.968;8.844;2023-12-14T12:00:23;8.60;;;7.47;;
20890;SDS011;10605;52.968;8.844;2023-12-14T12:02:50;8.27;;;7.40;;
20890;SDS011;10605;52.968;8.844;2023-12-14T12:05:16;10.05;;;7.57;;
20890;SDS011;10605;52.968;8.844;2023-12-14T12:07:44;8.18;;;7.47;;
20890;SDS011;10605;52.968;8.844;2023-12-14T12:10:10;8.32;;;6.70;;
20890;SDS011;10605;52.968;8.844;2023-12-14T12:12:36;9.05;;;8.07;;
20890;SDS011;10605;52.968;8.844;2023-12-14T12:15:02;10.27;;;7.50;;
20890;SDS011;10605;52.968;8.844;2023-12-14T12:17:29;9.88;;;8.40;;
20890;SDS011;10605;52.968;8.844;2023-12-14T12:19:54;12.18;;;9.50;;
20890;SDS011;10605;52.968;8.844;2023-12-14T12:22:20;10.52;;;9.45;;
20890;SDS011;10605;52.968;8.844;2023-12-14T12:24:46;13.07;;;10.55;;
20890;SDS011;10605;52.968;8.844;2023-12-14T12:27:11;10.35;;;8.35;;
20890;SDS011;10605;52.968;8.844;2023-12-14T12:29:37;12.80;;;11.50;;
20890;SDS011;10605;52.968;8.844;2023-12-14T12:32:02;14.43;;;11.27;;
20890;SDS011;10605;52.968;8.844;2023-12-14T12:34:29;14.35;;;9.90;;
20890;SDS011;10605;52.968;8.844;2023-12-14T12:36:54;9.40;;;8.32;;
20890;SDS011;10605;52.968;8.844;2023-12-14T12:39:22;9.68;;;8.82;;
20890;SDS011;10605;52.968;8.844;2023-12-14T12:41:48;11.63;;;7.82;;
20890;SDS011;10605;52.968;8.844;2023-12-14T12:44:13;11.48;;;7.50;;
20890;SDS011;10605;52.968;8.844;2023-12-14T12:46:39;12.23;;;8.20;;
20890;SDS011;10605;52.968;8.844;2023-12-14T12:49:05;10.68;;;8.20;;
20890;SDS011;10605;52.968;8.844;2023-12-14T12:51:31;10.30;;;8.00;;
20890;SDS011;10605;52.968;8.844;2023-12-14T12:53:57;9.68;;;7.93;;
20890;SDS011;10605;52.968;8.844;2023-12-14T12:56:24;9.27;;;7.45;;
20890;SDS011;10605;52.968;8.844;2023-12-14T12:58:52;12.50;;;8.70;;
20890;SDS011;10605;52.968;8.844;2023-12-14T13:01:19;7.72;;;7.03;;
20890;SDS011;10605;52.968;8.844;2023-12-14T13:03:54;9.68;;;8.05;;
20890;SDS011;10605;52.968;8.844;2023-12-14T13:06:22;9.02;;;7.22;;
20890;SDS011;10605;52.968;8.844;2023-12-14T13:08:49;10.13;;;8.10;;
20890;SDS011;10605;52.968;8.844;2023-12-14T13:11:14;9.15;;;8.35;;
20890;SDS011;10605;52.968;8.844;2023-12-14T13:13:40;10.35;;;8.57;;
20890;SDS011;10605;52.968;8.844;2023-12-14T13:16:06;11.98;;;8.13;;
20890;SDS011;10605;52.968;8.844;2023-12-14T13:18:32;9.50;;;8.13;;
20890;SDS011;10605;52.968;8.844;2023-12-14T13:20:57;8.38;;;7.47;;
20890;SDS011;10605;52.968;8.844;2023-12-14T13:23:23;9.63;;;8.02;;
20890;SDS011;10605;52.968;8.844;2023-12-14T13:25:48;9.07;;;7.85;;
20890;SDS011;10605;52.968;8.844;2023-12-14T13:28:15;11.98;;;7.72;;
20890;SDS011;10605;52.968;8.844;2023-12-14T13:30:41;10.43;;;8.15;;
20890;SDS011;10605;52.968;8.844;2023-12-14T13:33:07;8.77;;;7.88;;
20890;SDS011;10605;52.968;8.844;2023-12-14T13:35:34;8.68;;;7.75;;
20890;SDS011;10605;52.968;8.844;2023-12-14T13:38:00;12.23;;;8.70;;
20890;SDS011;10605;52.968;8.844;2023-12-14T13:40:25;11.98;;;8.68;;
20890;SDS011;10605;52.968;8.844;2023-12-14T13:42:51;11.80;;;8.00;;
20890;SDS011;10605;52.968;8.844;2023-12-14T13:45:18;9.85;;;7.75;;
20890;SDS011;10605;52.968;8.844;2023-12-14T13:47:43;10.70;;;7.85;;
20890;SDS011;10605;52.968;8.844;2023-12-14T13:50:09;8.60;;;7.80;;
20890;SDS011;10605;52.968;8.844;2023-12-14T13:52:35;8.68;;;7.88;;
20890;SDS011;10605;52.968;8.844;2023-12-14T13:55:00;11.07;;;7.32;;
20890;SDS011;10605;52.968;8.844;2023-12-14T13:57:26;12.43;;;8.65;;
20890;SDS011;10605;52.968;8.844;2023-12-14T13:59:52;10.98;;;8.65;;
20890;SDS011;10605;52.968;8.844;2023-12-14T14:02:18;10.10;;;7.90;;
20890;SDS011;10605;52.968;8.844;2023-12-14T14:04:44;9.05;;;8.05;;
20890;SDS011;10605;52.968;8.844;2023-12-14T14:07:10;9.85;;;8.88;;
20890;SDS011;10605;52.968;8.844;2023-12-14T14:09:35;9.57;;;8.50;;
20890;SDS011;10605;52.968;8.844;2023-12-14T14:12:01;10.82;;;8.52;;
20890;SDS011;10605;52.968;8.844;2023-12-14T14:14:26;11.07;;;8.32;;
20890;SDS011;10605;52.968;8.844;2023-12-14T14:16:52;10.90;;;9.52;;
20890;SDS011;10605;52.968;8.844;2023-12-14T14:19:18;10.50;;;8.25;;
20890;SDS011;10605;52.968;8.844;2023-12-14T14:21:43;10.05;;;9.15;;
20890;SDS011;10605;52.968;8.844;2023-12-14T14:24:09;11.63;;;8.82;;
20890;SDS011;10605;52.968;8.844;2023-12-14T14:26:34;13.35;;;8.85;;
20890;SDS011;10605;52.968;8.844;2023-12-14T14:29:00;13.85;;;8.95;;
20890;SDS011;10605;52.968;8.844;2023-12-14T14:31:27;12.35;;;9.07;;
20890;SDS011;10605;52.968;8.844;2023-12-14T14:33:57;14.40;;;9.50;;
20890;SDS011;10605;52.968;8.844;2023-12-14T14:36:23;12.15;;;10.13;;
20890;SDS011;10605;52.968;8.844;2023-12-14T14:38:49;15.02;;;11.18;;
20890;SDS011;10605;52.968;8.844;2023-12-14T14:41:16;11.23;;;9.55;;
20890;SDS011;10605;52.968;8.844;2023-12-14T14:43:43;12.35;;;10.77;;